Decoded Metar for LETL (TERUEL in SPAIN) (IATA:N/A) | Meteo·Mobile Aviation Weather
aviador You're here:

LETL Decoded Metar

TERUEL in SPAIN
Report Time2019-07-20 00:30:00
UTC Time2019-07-20 01:00:31
Flight Rules vfr VFR
Wind140° at 08 kt
Visibility9999 m
Phenomena:N/A
Clouds:N/A
Expected CloudBase > 2,000 ft AGL from Temp-Dew spread
CeilingNone
Temp18°C (ISA +10)
Dew Point13°C (73% RH)
AAT16.1°C
QNH1019 hPa
Density Alt4,508 ft
Elevation3,367 ft
Report Wrong Elevation
Raw Report
METAR LETL 200030Z AUTO 14008KT 9999 NCD 18/13 Q1019=

Extra information for LETL:More info

Metar Taf Metar & Taf Last 4 Metars F.Rules Stats Wind Profile Meteogram Temp Stats Airport Information Weather charts Add Link Nearby VenuesMetar ALERT Operation Metar Decoded Social comments